Time;durP1;ratioP1;P1;durP2;ratioP2;P2;SDS_P1;SDS_P2;PMS_P1;PMS_P2;Temp;Humidity;BMP_temperature;BMP_pressure;BME280_temperature;BME280_humidity;BME280_pressure;Samples;Min_cycle;Max_cycle;Signal;HPM_P1;HPM_P2
2023/06/04 00:00:09;;;;;;;3.60;3.30;;;;;;;11.75;43.35;101542.00;7400958;19;20438;-68
2023/06/04 00:02:37;;;;;;;4.32;3.58;;;;;;;11.70;43.58;101542.06;7401390;19;20025;-68
2023/06/04 00:05:06;;;;;;;5.47;3.10;;;;;;;11.67;43.61;101547.34;7399022;19;20029;-68
2023/06/04 00:07:35;;;;;;;4.28;3.45;;;;;;;11.63;43.64;101544.81;7398186;19;20485;-68
2023/06/04 00:10:03;;;;;;;5.75;3.95;;;;;;;11.58;43.78;101545.72;7400883;19;20429;-68
2023/06/04 00:12:40;;;;;;;5.47;3.35;;;;;;;11.54;44.10;101545.78;7398609;19;20018;-69
2023/06/04 00:15:10;;;;;;;5.50;2.78;;;;;;;11.48;44.11;101541.47;7401356;19;20019;-69
2023/06/04 00:17:38;;;;;;;4.55;2.85;;;;;;;11.41;44.10;101539.81;7397867;19;20362;-68
2023/06/04 00:20:08;;;;;;;3.65;2.00;;;;;;;11.36;44.30;101541.63;7397775;19;20011;-68
2023/06/04 00:22:37;;;;;;;5.20;2.50;;;;;;;11.30;44.38;101544.31;7400791;19;20037;-68
2023/06/04 00:25:06;;;;;;;3.72;2.38;;;;;;;11.24;44.37;101533.00;7398253;19;20499;-68
2023/06/04 00:27:34;;;;;;;3.38;2.30;;;;;;;11.21;44.68;101543.56;7398113;19;20086;-68
2023/06/04 00:30:06;;;;;;;3.55;2.28;;;;;;;11.17;44.85;101547.13;7398011;19;20019;-68
2023/06/04 00:32:34;;;;;;;3.55;2.47;;;;;;;11.12;45.00;101537.53;7397885;19;20015;-68
2023/06/04 00:35:03;;;;;;;6.18;2.38;;;;;;;11.08;45.20;101541.94;7400325;19;20013;-68
2023/06/04 00:37:32;;;;;;;3.40;2.40;;;;;;;11.04;45.31;101530.59;7399932;19;20499;-68
2023/06/04 00:40:01;;;;;;;2.45;2.22;;;;;;;11.01;45.51;101524.53;7399858;19;20014;-67
2023/06/04 00:42:30;;;;;;;3.17;2.58;;;;;;;10.99;45.59;101542.06;7397786;19;20377;-68
2023/06/04 00:44:59;;;;;;;3.53;2.13;;;;;;;10.97;45.68;101528.94;7397710;19;20010;-68
2023/06/04 00:47:30;;;;;;;2.70;2.10;;;;;;;10.96;45.85;101528.97;7399548;19;20021;-68
2023/06/04 00:50:00;;;;;;;2.78;2.22;;;;;;;10.92;45.78;101526.38;7399487;19;20361;-67
2023/06/04 00:52:35;;;;;;;3.88;2.13;;;;;;;10.90;45.90;101529.88;7397528;19;20014;-67
2023/06/04 00:55:04;;;;;;;3.20;2.10;;;;;;;10.88;46.06;101529.91;7400178;19;20101;-68
2023/06/04 00:57:33;;;;;;;3.33;1.92;;;;;;;10.84;46.04;101532.56;7399649;19;20019;-67
2023/06/04 01:00:01;;;;;;;2.67;2.10;;;;;;;10.80;46.23;101530.88;7399541;19;20014;-67
2023/06/04 01:02:34;;;;;;;4.72;2.42;;;;;;;10.76;46.58;101527.41;7397114;19;20018;-67
2023/06/04 01:05:10;;;;;;;6.82;2.33;;;;;;;10.72;46.70;101528.34;7398262;19;20082;-67
2023/06/04 01:07:40;;;;;;;3.38;2.10;;;;;;;10.67;46.79;101535.38;7399307;19;20018;-67
2023/06/04 01:10:10;;;;;;;5.18;2.28;;;;;;;10.63;46.89;101526.66;7399767;19;20058;-67
2023/06/04 01:12:42;;;;;;;3.17;2.30;;;;;;;10.59;47.15;101530.22;7400142;19;20046;-67
2023/06/04 01:15:12;;;;;;;4.10;2.28;;;;;;;10.53;47.21;101528.50;7399305;19;20093;-67
2023/06/04 01:17:46;;;;;;;4.88;2.38;;;;;;;10.46;47.46;101531.19;7398548;19;20481;-67
2023/06/04 01:20:25;;;;;;;2.15;1.80;;;;;;;10.39;47.63;101525.13;7396867;19;20063;-65
2023/06/04 01:23:16;;;;;;;3.15;2.28;;;;;;;10.34;47.79;101533.00;7396987;19;20018;-66
2023/06/04 01:25:49;;;;;;;5.30;2.30;;;;;;;10.30;47.63;101530.41;7396774;19;20023;-66
2023/06/04 01:28:20;;;;;;;3.20;2.03;;;;;;;10.24;47.56;101520.84;7398926;19;20037;-66
2023/06/04 01:30:50;;;;;;;3.00;2.13;;;;;;;10.20;47.66;101525.25;7398152;19;20022;-66
2023/06/04 01:33:22;;;;;;;3.40;2.30;;;;;;;10.13;47.78;101520.06;7398010;19;20038;-66
2023/06/04 01:35:51;;;;;;;4.82;1.90;;;;;;;10.06;47.86;101519.22;7398747;19;20041;-66
2023/06/04 01:38:20;;;;;;;4.78;2.17;;;;;;;10.01;47.83;101523.63;7398203;19;20007;-66
2023/06/04 01:40:50;;;;;;;5.63;2.08;;;;;;;9.97;47.90;101520.19;7396056;19;20041;-66
2023/06/04 01:43:19;;;;;;;4.90;1.90;;;;;;;9.94;47.91;101526.31;7397237;19;20010;-66
2023/06/04 01:45:48;;;;;;;2.65;1.88;;;;;;;9.89;47.99;101524.59;7395739;19;20082;-66
2023/06/04 01:48:16;;;;;;;3.40;2.20;;;;;;;9.85;48.05;101521.09;7397512;19;20021;-66
2023/06/04 01:50:47;;;;;;;2.13;1.80;;;;;;;9.80;48.08;101522.88;7395599;19;20024;-66
2023/06/04 01:53:16;;;;;;;5.20;1.98;;;;;;;9.76;48.27;101527.28;7398191;19;20135;-66
2023/06/04 01:55:44;;;;;;;4.55;1.88;;;;;;;9.73;48.28;101518.56;7395716;19;20018;-66
2023/06/04 01:58:13;;;;;;;2.60;1.90;;;;;;;9.70;48.34;101523.81;7395309;19;20361;-66
2023/06/04 02:00:42;;;;;;;2.42;1.90;;;;;;;9.67;48.40;101519.47;7396664;19;20025;-66
2023/06/04 02:03:12;;;;;;;3.25;2.05;;;;;;;9.64;48.59;101518.63;7395554;19;20018;-66
2023/06/04 02:05:40;;;;;;;3.65;1.92;;;;;;;9.61;48.53;101517.75;7395472;19;20509;-66
2023/06/04 02:08:12;;;;;;;2.05;1.80;;;;;;;9.59;48.99;101519.53;7396925;19;20541;-66
2023/06/04 02:10:40;;;;;;;3.83;2.30;;;;;;;9.58;48.80;101515.16;7394912;19;20043;-66
2023/06/04 02:13:08;;;;;;;2.70;2.00;;;;;;;9.56;48.71;101514.28;7395329;19;20014;-67
2023/06/04 02:15:37;;;;;;;3.25;1.88;;;;;;;9.54;48.80;101516.06;7397000;19;20082;-67
2023/06/04 02:18:16;;;;;;;3.28;2.50;;;;;;;9.51;48.96;101515.19;7396623;19;20486;-67
2023/06/04 02:20:45;;;;;;;2.95;1.90;;;;;;;9.49;48.96;101515.22;7396780;19;20014;-67
2023/06/04 02:23:18;;;;;;;4.53;2.17;;;;;;;9.48;49.12;101513.47;7396824;19;20020;-67
2023/06/04 02:25:47;;;;;;;3.97;1.88;;;;;;;9.47;49.27;101514.34;7394924;19;20082;-67
2023/06/04 02:28:16;;;;;;;3.40;2.30;;;;;;;9.46;49.17;101515.22;7396577;19;20057;-67
2023/06/04 02:30:46;;;;;;;3.47;1.73;;;;;;;9.44;49.32;101512.59;7396137;19;20019;-67
2023/06/04 02:33:15;;;;;;;3.30;2.15;;;;;;;9.44;49.48;101516.97;7396974;19;20022;-66
2023/06/04 02:35:43;;;;;;;3.90;2.38;;;;;;;9.42;49.45;101519.59;7394749;19;20018;-67
2023/06/04 02:38:12;;;;;;;3.40;2.03;;;;;;;9.42;49.63;101516.09;7396153;19;20133;-67
2023/06/04 02:40:44;;;;;;;3.15;2.13;;;;;;;9.39;49.54;101519.63;7395678;19;20020;-67
2023/06/04 02:43:13;;;;;;;3.47;1.80;;;;;;;9.37;49.76;101518.75;7394499;19;20078;-67
2023/06/04 02:45:42;;;;;;;3.38;1.92;;;;;;;9.34;49.92;101516.16;7394997;19;20094;-67
2023/06/04 02:48:10;;;;;;;3.42;2.25;;;;;;;9.33;50.15;101513.53;7394072;19;20489;-67
2023/06/04 02:50:42;;;;;;;4.90;2.75;;;;;;;9.29;50.47;101517.91;7395528;19;20034;-66
2023/06/04 02:53:10;;;;;;;6.75;3.45;;;;;;;9.24;50.75;101520.53;7395602;19;20018;-67
2023/06/04 02:55:39;;;;;;;7.20;3.78;;;;;;;9.18;50.85;101520.56;7395384;19;20548;-66
2023/06/04 02:58:11;;;;;;;8.18;4.13;;;;;;;9.15;51.11;101524.94;7395897;19;20022;-67
2023/06/04 03:00:40;;;;;;;7.40;4.22;;;;;;;9.08;51.30;101522.31;7395677;19;20019;-65
2023/06/04 03:03:08;;;;;;;19.38;9.30;;;;;;;9.03;51.44;101525.84;7392695;19;20010;-66
2023/06/04 03:05:39;;;;;;;13.98;7.63;;;;;;;8.98;51.62;101525.00;7393664;19;20015;-65
2023/06/04 03:08:07;;;;;;;9.30;5.38;;;;;;;8.94;51.62;101529.38;7395900;19;20025;-67
2023/06/04 03:10:36;;;;;;;3.67;2.90;;;;;;;8.88;52.08;101535.47;7394611;19;20031;-66
2023/06/04 03:13:05;;;;;;;5.43;2.63;;;;;;;8.82;52.04;101526.75;7394830;19;20015;-66
2023/06/04 03:15:39;;;;;;;5.38;2.97;;;;;;;8.76;52.36;101525.03;7395146;19;20425;-66
2023/06/04 03:18:07;;;;;;;10.45;5.80;;;;;;;8.73;52.46;101525.03;7394709;19;20014;-66
2023/06/04 03:20:38;;;;;;;14.60;7.75;;;;;;;8.71;52.57;101532.03;7394181;19;20438;-66
2023/06/04 03:23:06;;;;;;;18.33;10.18;;;;;;;8.69;52.59;101528.53;7393180;19;20371;-66
2023/06/04 03:25:34;;;;;;;20.15;10.23;;;;;;;8.66;52.80;101531.13;7392999;19;20019;-66
2023/06/04 03:28:03;;;;;;;16.88;9.18;;;;;;;8.63;52.73;101535.53;7392657;19;20011;-66
2023/06/04 03:30:31;;;;;;;19.65;8.20;;;;;;;8.61;53.00;101526.78;7392652;19;20905;-66
2023/06/04 03:33:02;;;;;;;17.35;9.98;;;;;;;8.60;53.24;101532.03;7394470;19;20531;-66
2023/06/04 03:35:31;;;;;;;20.40;11.25;;;;;;;8.57;53.23;101535.53;7393267;19;20014;-66
2023/06/04 03:38:00;;;;;;;26.90;11.77;;;;;;;8.55;53.12;101546.84;7394621;19;20022;-66
2023/06/04 03:40:28;;;;;;;24.20;12.63;;;;;;;8.52;53.20;101539.88;7392597;19;20014;-66
2023/06/04 03:42:56;;;;;;;30.42;13.93;;;;;;;8.48;53.57;101544.25;7392382;19;20023;-66
2023/06/04 03:45:25;;;;;;;35.80;19.30;;;;;;;8.48;53.29;101543.38;7393538;19;20015;-66
2023/06/04 03:47:53;;;;;;;42.20;21.73;;;;;;;8.47;53.33;101541.63;7394004;19;20486;-67
2023/06/04 03:50:24;;;;;;;39.10;19.90;;;;;;;8.46;53.48;101547.72;7393698;19;20508;-66
2023/06/04 03:52:53;;;;;;;39.15;19.85;;;;;;;8.43;53.63;101551.19;7393981;19;20484;-66
2023/06/04 03:55:22;;;;;;;49.55;25.67;;;;;;;8.42;53.84;101546.81;7394154;19;20019;-66
2023/06/04 03:57:51;;;;;;;50.58;27.35;;;;;;;8.41;53.79;101541.59;7393573;19;20011;-66
2023/06/04 04:00:21;;;;;;;55.47;28.92;;;;;;;8.41;53.64;101541.59;7394515;19;20022;-65
2023/06/04 04:02:50;;;;;;;53.33;27.67;;;;;;;8.40;54.05;101542.47;7394028;19;20014;-66
2023/06/04 04:05:19;;;;;;;58.08;33.13;;;;;;;8.39;53.97;101548.56;7393061;19;20023;-66
2023/06/04 04:07:50;;;;;;;66.97;33.60;;;;;;;8.38;54.10;101541.56;7393886;19;20025;-66
2023/06/04 04:10:19;;;;;;;62.17;32.35;;;;;;;8.38;54.06;101538.97;7393946;19;20018;-65
2023/06/04 04:12:47;;;;;;;60.03;30.40;;;;;;;8.38;54.19;101538.97;7393157;19;20485;-66
2023/06/04 04:15:16;;;;;;;58.42;31.30;;;;;;;8.38;54.34;101550.31;7396646;19;20530;-66
2023/06/04 04:17:44;;;;;;;48.55;26.05;;;;;;;8.40;54.24;101545.94;7397964;19;20477;-66
2023/06/04 04:20:14;;;;;;;55.35;28.98;;;;;;;8.40;54.23;101545.06;7400682;19;20022;-66
2023/06/04 04:22:43;;;;;;;54.50;28.92;;;;;;;8.43;54.28;101547.72;7400906;19;20014;-66
2023/06/04 04:25:14;;;;;;;51.45;26.50;;;;;;;8.43;54.34;101545.09;7397668;19;20018;-66
2023/06/04 04:27:43;;;;;;;41.30;23.52;;;;;;;8.46;54.53;101545.13;7400459;19;20517;-66
2023/06/04 04:30:19;;;;;;;39.75;22.83;;;;;;;8.49;54.74;101545.09;7397834;19;20018;-66
2023/06/04 04:32:48;;;;;;;29.50;18.00;;;;;;;8.52;54.66;101539.88;7400225;19;20010;-66
2023/06/04 04:35:18;;;;;;;24.70;14.80;;;;;;;8.55;54.77;101541.63;7397927;19;20062;-65
2023/06/04 04:37:46;;;;;;;21.25;12.50;;;;;;;8.61;54.81;101546.84;7400364;19;20014;-66
2023/06/04 04:40:17;;;;;;;24.27;13.52;;;;;;;8.66;54.85;101546.84;7399656;19;20018;-66
2023/06/04 04:42:46;;;;;;;22.70;11.57;;;;;;;8.69;54.87;101552.94;7399947;19;20514;-67
2023/06/04 04:45:21;;;;;;;20.30;10.77;;;;;;;8.73;55.21;101546.84;7394259;19;20078;-67
2023/06/04 04:47:56;;;;;;;23.70;11.52;;;;;;;8.79;54.97;101548.56;7396645;19;20500;-67
2023/06/04 04:50:24;;;;;;;24.42;12.90;;;;;;;8.84;55.12;101549.44;7399581;19;20027;-66
2023/06/04 04:52:53;;;;;;;16.70;10.50;;;;;;;8.90;55.13;101552.03;7399913;19;20015;-67
2023/06/04 04:55:24;;;;;;;14.45;8.25;;;;;;;8.98;55.40;101553.78;7399034;19;20477;-66
2023/06/04 04:57:52;;;;;;;10.20;5.70;;;;;;;9.03;55.22;101557.25;7399401;19;20022;-66
2023/06/04 05:00:21;;;;;;;5.78;3.75;;;;;;;9.09;55.30;101559.88;7397146;19;20025;-66
2023/06/04 05:02:49;;;;;;;5.85;4.00;;;;;;;9.16;55.52;101558.09;7399517;19;20022;-67
2023/06/04 05:05:18;;;;;;;4.68;2.67;;;;;;;9.23;55.38;101554.59;7398539;19;20077;-67
2023/06/04 05:07:47;;;;;;;3.88;3.00;;;;;;;9.29;55.60;101555.44;7396780;19;20426;-67
2023/06/04 05:10:15;;;;;;;5.72;2.47;;;;;;;9.38;55.25;101557.16;7398627;19;20023;-65
2023/06/04 05:12:56;;;;;;;3.08;2.25;;;;;;;9.46;55.13;101554.50;7396855;19;20022;-66
2023/06/04 05:15:26;;;;;;;3.03;2.30;;;;;;;9.55;54.78;101559.69;7399521;19;20078;-67
2023/06/04 05:17:56;;;;;;;4.00;2.70;;;;;;;9.64;54.83;101555.28;7398709;19;20014;-66
2023/06/04 05:20:25;;;;;;;2.67;2.05;;;;;;;9.72;54.51;101553.53;7396632;19;20018;-66
2023/06/04 05:22:55;;;;;;;2.97;2.20;;;;;;;9.82;54.57;101555.22;7396312;19;20481;-66
2023/06/04 05:25:24;;;;;;;3.95;2.35;;;;;;;9.91;54.36;101555.16;7396036;19;20021;-67
2023/06/04 05:27:55;;;;;;;2.72;1.95;;;;;;;9.99;54.22;101552.47;7396162;19;20015;-66
2023/06/04 05:30:23;;;;;;;2.70;2.05;;;;;;;10.10;53.72;101549.78;7398035;19;20370;-67
2023/06/04 05:32:53;;;;;;;4.25;2.15;;;;;;;10.20;53.67;101556.72;7398154;19;20014;-66
2023/06/04 05:35:21;;;;;;;5.13;2.03;;;;;;;10.29;53.37;101561.03;7398421;19;20018;-67
2023/06/04 05:37:53;;;;;;;5.15;2.50;;;;;;;10.37;53.22;101559.22;7396302;19;20029;-67
2023/06/04 05:40:22;;;;;;;3.53;2.10;;;;;;;10.47;52.98;101569.66;7397693;19;20489;-67
2023/06/04 05:42:51;;;;;;;3.10;2.22;;;;;;;10.55;52.82;101567.84;7397972;19;20372;-66
2023/06/04 05:45:22;;;;;;;2.28;1.80;;;;;;;10.63;52.59;101562.50;7397353;19;20481;-65
2023/06/04 05:47:57;;;;;;;2.95;1.80;;;;;;;10.72;52.33;101567.69;7395593;19;20020;-65
2023/06/04 05:50:32;;;;;;;2.30;1.90;;;;;;;10.82;52.15;101566.72;7395998;19;20018;-65
2023/06/04 05:53:01;;;;;;;3.63;2.08;;;;;;;10.91;51.91;101565.78;7395500;19;20014;-66
2023/06/04 05:55:29;;;;;;;4.47;1.95;;;;;;;11.00;51.84;101563.03;7397844;19;20018;-66
2023/06/04 05:57:57;;;;;;;3.33;1.88;;;;;;;11.08;51.44;101563.84;7395311;19;20018;-66
2023/06/04 06:00:29;;;;;;;2.33;1.85;;;;;;;11.19;51.65;101575.97;7397327;19;20022;-66
2023/06/04 06:02:58;;;;;;;3.25;2.20;;;;;;;11.29;51.62;101580.25;7397671;19;20037;-66
2023/06/04 06:05:26;;;;;;;2.97;1.95;;;;;;;11.37;51.38;101573.16;7394708;19;20074;-67
2023/06/04 06:07:55;;;;;;;2.20;2.00;;;;;;;11.46;51.28;101569.56;7395502;19;20022;-66
2023/06/04 06:10:24;;;;;;;3.60;1.88;;;;;;;11.56;51.22;101575.53;7394926;19;20029;-66
2023/06/04 06:12:52;;;;;;;3.50;1.77;;;;;;;11.66;50.90;101576.28;7396896;19;20017;-66
2023/06/04 06:15:21;;;;;;;4.45;1.70;;;;;;;11.75;50.52;101581.41;7394995;19;20014;-68
2023/06/04 06:17:52;;;;;;;2.47;1.80;;;;;;;11.84;50.31;101580.44;7396653;19;20477;-66
2023/06/04 06:20:21;;;;;;;2.17;1.65;;;;;;;11.94;50.07;101575.91;7395836;19;20481;-66
2023/06/04 06:22:50;;;;;;;3.83;2.60;;;;;;;12.02;49.87;101580.22;7396358;19;20078;-68
2023/06/04 06:25:19;;;;;;;3.55;1.60;;;;;;;12.13;49.86;101573.94;7396329;19;20014;-65
2023/06/04 06:27:48;;;;;;;3.53;1.65;;;;;;;12.23;49.56;101575.50;7394620;19;20018;-66
2023/06/04 06:30:16;;;;;;;3.20;2.00;;;;;;;12.31;49.35;101575.41;7396003;19;20019;-65
2023/06/04 06:32:45;;;;;;;2.95;1.70;;;;;;;12.41;49.12;101581.38;7395890;19;20026;-67
2023/06/04 06:35:16;;;;;;;2.28;1.30;;;;;;;12.51;48.92;101586.50;7394769;19;20035;-67
2023/06/04 06:37:45;;;;;;;2.15;1.48;;;;;;;12.61;48.48;101583.69;7396267;19;20035;-66
2023/06/04 06:40:14;;;;;;;2.35;1.73;;;;;;;12.69;48.22;101577.41;7396141;19;20037;-67
2023/06/04 06:42:42;;;;;;;3.38;2.05;;;;;;;12.80;47.94;101590.41;7396034;19;20018;-67
2023/06/04 06:45:12;;;;;;;2.00;1.45;;;;;;;12.91;47.90;101589.34;7396478;19;20014;-66
2023/06/04 06:47:40;;;;;;;2.40;1.40;;;;;;;13.02;47.42;101587.38;7393738;19;20502;-66
2023/06/04 06:50:10;;;;;;;2.85;1.52;;;;;;;13.12;47.21;101591.56;7394352;19;20078;-66
2023/06/04 06:52:41;;;;;;;5.22;1.52;;;;;;;13.24;46.84;101585.19;7395831;19;20034;-66
2023/06/04 06:55:10;;;;;;;2.70;1.98;;;;;;;13.35;46.50;101591.13;7395644;19;20545;-66
2023/06/04 06:57:39;;;;;;;5.35;2.13;;;;;;;13.46;46.15;101596.22;7394317;19;20015;-66
2023/06/04 07:00:09;;;;;;;5.10;1.88;;;;;;;13.58;45.96;101597.72;7395579;19;20034;-66
2023/06/04 07:02:38;;;;;;;3.03;1.65;;;;;;;13.69;45.79;101597.50;7395743;19;20026;-65
2023/06/04 07:05:07;;;;;;;1.98;1.42;;;;;;;13.80;45.29;101595.50;7393799;19;20023;-67
2023/06/04 07:07:36;;;;;;;1.92;1.50;;;;;;;13.90;45.10;101600.59;7393725;19;20018;-67
2023/06/04 07:10:07;;;;;;;5.38;1.42;;;;;;;14.00;44.91;101594.19;7395220;19;20018;-67
2023/06/04 07:12:36;;;;;;;2.63;1.20;;;;;;;14.10;44.76;101587.81;7393519;19;20419;-67
2023/06/04 07:15:05;;;;;;;3.90;1.58;;;;;;;14.24;44.67;101592.78;7395001;19;20027;-66
2023/06/04 07:17:34;;;;;;;2.72;1.40;;;;;;;14.37;44.13;101598.63;7396101;19;20363;-66
2023/06/04 07:20:03;;;;;;;3.05;1.42;;;;;;;14.49;43.80;101592.19;7394829;19;20018;-66
2023/06/04 07:22:32;;;;;;;3.22;1.45;;;;;;;14.61;43.59;101585.75;7393055;19;20019;-65
2023/06/04 07:25:00;;;;;;;5.22;1.63;;;;;;;14.71;43.03;101591.66;7394331;19;20498;-65
2023/06/04 07:27:31;;;;;;;4.70;1.10;;;;;;;14.82;42.83;101586.97;7393133;19;20031;-64
2023/06/04 07:30:00;;;;;;;6.13;1.30;;;;;;;14.92;42.69;101588.47;7394598;19;20027;-65
2023/06/04 07:32:28;;;;;;;1.80;1.30;;;;;;;15.03;41.93;101584.69;7392345;19;20485;-66
2023/06/04 07:34:57;;;;;;;2.35;0.90;;;;;;;15.17;41.21;101592.25;7394281;19;20018;-65
2023/06/04 07:37:25;;;;;;;2.10;1.00;;;;;;;15.28;40.65;101591.03;7394615;19;20022;-65
2023/06/04 07:39:54;;;;;;;3.13;1.08;;;;;;;15.42;40.33;101589.78;7394068;19;20032;-67
2023/06/04 07:42:22;;;;;;;2.40;0.93;;;;;;;15.55;39.94;101587.66;7392602;19;20023;-66
2023/06/04 07:44:53;;;;;;;2.80;1.20;;;;;;;15.68;39.56;101591.66;7392331;19;20031;-67
2023/06/04 07:47:28;;;;;;;2.95;1.10;;;;;;;15.78;38.78;101589.59;7391369;19;20010;-67
2023/06/04 07:50:03;;;;;;;3.72;1.20;;;;;;;15.90;38.01;101588.41;7399291;19;20411;-65
2023/06/04 07:52:31;;;;;;;1.90;1.00;;;;;;;16.00;37.67;101583.69;7398598;19;20082;-67
2023/06/04 07:55:00;;;;;;;1.98;1.15;;;;;;;16.11;37.51;101589.50;7401452;19;20035;-66
2023/06/04 07:57:29;;;;;;;5.63;1.42;;;;;;;16.21;37.29;101582.16;7400476;19;20033;-65
2023/06/04 08:00:03;;;;;;;1.85;0.95;;;;;;;16.29;36.90;101580.97;7402218;19;20015;-67
2023/06/04 08:02:32;;;;;;;1.58;1.10;;;;;;;16.38;36.37;101571.88;7397814;19;20050;-68
2023/06/04 08:05:02;;;;;;;3.58;1.27;;;;;;;16.48;35.73;101576.84;7397405;19;20473;-67
2023/06/04 08:07:31;;;;;;;5.32;1.85;;;;;;;16.56;35.63;101574.84;7397757;19;20011;-68
2023/06/04 08:10:00;;;;;;;1.80;1.00;;;;;;;16.66;35.15;101578.03;7397778;19;20032;-68
2023/06/04 08:12:28;;;;;;;4.10;1.10;;;;;;;16.74;34.89;101566.28;7398093;19;20035;-68
2023/06/04 08:14:59;;;;;;;2.67;1.50;;;;;;;16.85;34.20;101571.19;7400461;19;20022;-68
2023/06/04 08:17:28;;;;;;;1.70;0.93;;;;;;;16.97;33.77;101563.75;7400654;19;20019;-68
2023/06/04 08:19:58;;;;;;;2.50;0.80;;;;;;;17.07;33.78;101563.38;7397916;19;20035;-67
2023/06/04 08:22:27;;;;;;;3.58;0.95;;;;;;;17.20;33.38;101573.50;7397734;19;20019;-67
2023/06/04 08:24:55;;;;;;;1.50;1.00;;;;;;;17.29;32.95;101570.53;7400016;19;20022;-68
2023/06/04 08:27:24;;;;;;;2.65;0.70;;;;;;;17.35;32.48;101572.09;7398615;19;20019;-68
2023/06/04 08:29:52;;;;;;;3.85;1.13;;;;;;;17.45;32.29;101575.28;7400578;19;20027;-68
2023/06/04 08:32:23;;;;;;;3.35;0.93;;;;;;;17.55;32.30;101574.00;7397799;19;20018;-68
2023/06/04 08:34:52;;;;;;;3.53;0.90;;;;;;;17.64;32.25;101573.66;7400366;19;20022;-68
2023/06/04 08:37:21;;;;;;;6.93;1.00;;;;;;;17.74;32.30;101572.38;7401216;19;20010;-69
2023/06/04 08:39:49;;;;;;;2.15;0.80;;;;;;;17.83;32.08;101572.94;7400148;19;20427;-67
2023/06/04 08:42:25;;;;;;;5.07;1.05;;;;;;;17.89;30.81;101576.25;7397410;19;20031;-68
2023/06/04 08:44:55;;;;;;;2.53;1.10;;;;;;;17.93;31.53;101571.66;7398014;19;20050;-68
2023/06/04 08:47:27;;;;;;;1.98;0.90;;;;;;;17.97;31.40;101575.97;7397612;19;20011;-68
2023/06/04 08:50:01;;;;;;;2.55;0.77;;;;;;;18.03;30.82;101574.84;7399708;19;20485;-68
2023/06/04 08:52:29;;;;;;;;;;;;;;;18.11;30.60;101571.88;7398388;19;20035;-68
2023/06/04 08:54:58;;;;;;;1.38;0.73;;;;;;;18.19;31.12;101575.09;7399902;19;19936;-68
2023/06/04 08:57:27;;;;;;;1.83;0.80;;;;;;;18.26;30.88;101578.34;7397231;19;20018;-68
2023/06/04 08:59:55;;;;;;;1.65;1.05;;;;;;;18.32;30.57;101571.00;7399069;19;20022;-68
2023/06/04 09:02:30;;;;;;;1.73;0.95;;;;;;;18.40;29.95;101571.56;7396725;19;20032;-69
2023/06/04 09:05:01;;;;;;;1.80;0.98;;;;;;;18.50;29.69;101569.38;7399680;19;20044;-68
2023/06/04 09:07:30;;;;;;;1.67;1.30;;;;;;;18.59;29.72;101581.44;7398234;19;20014;-68
2023/06/04 09:10:01;;;;;;;2.08;0.80;;;;;;;18.68;29.57;101583.69;7396670;19;20091;-67
2023/06/04 09:12:31;;;;;;;2.03;0.85;;;;;;;18.75;29.32;101575.44;7396052;19;20083;-67
2023/06/04 09:14:59;;;;;;;5.78;2.42;;;;;;;18.80;29.16;101584.09;7398611;19;20018;-69
2023/06/04 09:17:31;;;;;;;1.58;1.17;;;;;;;18.82;28.66;101575.13;7395957;19;20411;-68
2023/06/04 09:20:00;;;;;;;2.53;1.20;;;;;;;18.85;28.89;101577.63;7396377;19;20035;-68
2023/06/04 09:22:35;;;;;;;4.53;1.20;;;;;;;18.89;28.88;101570.38;7396167;19;20036;-69
2023/06/04 09:25:07;;;;;;;1.05;0.80;;;;;;;18.93;29.33;101576.47;7397899;19;20086;-68
2023/06/04 09:27:41;;;;;;;3.03;1.30;;;;;;;18.96;28.90;101574.53;7397488;19;20035;-69
2023/06/04 09:30:11;;;;;;;2.67;0.80;;;;;;;19.00;28.94;101573.47;7396825;19;20019;-68
2023/06/04 09:32:42;;;;;;;0.98;0.63;;;;;;;19.03;29.14;101567.16;7398528;19;20026;-68
2023/06/04 09:35:13;;;;;;;1.88;1.02;;;;;;;19.07;28.76;101582.06;7397892;19;20043;-68
2023/06/04 09:37:55;;;;;;;3.83;1.00;;;;;;;19.10;29.04;101578.41;7397909;19;20015;-68
2023/06/04 09:40:24;;;;;;;2.78;1.02;;;;;;;19.11;28.63;101580.09;7398277;19;20014;-68
2023/06/04 09:42:54;;;;;;;1.50;0.70;;;;;;;19.17;28.65;101574.50;7395938;19;20031;-68
2023/06/04 09:45:31;;;;;;;2.65;1.08;;;;;;;19.22;28.45;101559.22;7395884;19;20011;-68
2023/06/04 09:48:09;;;;;;;2.22;0.90;;;;;;;19.23;28.26;101566.25;7394671;19;20031;-68
2023/06/04 09:50:45;;;;;;;1.38;0.50;;;;;;;19.26;27.89;101562.59;7397686;19;20039;-68
2023/06/04 09:53:17;;;;;;;1.95;0.73;;;;;;;19.29;28.26;101562.47;7397807;19;20027;-68
2023/06/04 09:55:46;;;;;;;2.05;0.90;;;;;;;19.32;27.62;101563.22;7395671;19;20018;-68
2023/06/04 09:58:15;;;;;;;3.70;0.98;;;;;;;19.37;27.07;101561.19;7397700;19;20035;-68
2023/06/04 10:00:44;;;;;;;4.10;0.90;;;;;;;19.45;26.84;101567.94;7396503;19;20022;-68
2023/06/04 10:03:23;;;;;;;1.77;0.68;;;;;;;19.51;26.72;101572.97;7397088;19;20480;-68
2023/06/04 10:05:53;;;;;;;1.42;0.90;;;;;;;19.55;27.02;101569.28;7397801;19;20091;-68
2023/06/04 10:08:24;;;;;;;2.95;1.67;;;;;;;19.59;27.17;101565.53;7395307;19;20018;-67
2023/06/04 10:10:54;;;;;;;3.58;1.50;;;;;;;19.62;27.07;101570.69;7397023;19;20026;-68
2023/06/04 10:13:25;;;;;;;2.28;1.10;;;;;;;19.67;26.67;101573.16;7396043;19;20019;-67
2023/06/04 10:15:54;;;;;;;2.60;1.80;;;;;;;19.72;26.73;101567.63;7395782;19;20082;-68
2023/06/04 10:18:26;;;;;;;1.25;1.08;;;;;;;19.77;26.50;101566.44;7394950;19;20384;-69
2023/06/04 10:20:57;;;;;;;2.70;0.98;;;;;;;19.83;26.42;101566.19;7395347;19;20015;-68
2023/06/04 10:23:26;;;;;;;1.58;1.00;;;;;;;19.86;26.21;101558.03;7396972;19;20025;-68
2023/06/04 10:25:56;;;;;;;9.02;0.90;;;;;;;19.89;26.35;101561.50;7396587;19;20019;-68
2023/06/04 10:28:25;;;;;;;1.20;0.77;;;;;;;19.89;26.10;101557.06;7394544;19;20053;-68
2023/06/04 10:30:54;;;;;;;1.20;0.80;;;;;;;19.93;26.48;101552.41;7394139;19;20036;-67
2023/06/04 10:33:26;;;;;;;1.73;1.20;;;;;;;19.99;26.38;101552.13;7396248;19;20014;-68
2023/06/04 10:35:57;;;;;;;5.47;0.93;;;;;;;20.06;26.52;101552.72;7396422;19;20094;-68
2023/06/04 10:38:26;;;;;;;5.40;1.42;;;;;;;20.14;26.75;101550.53;7394878;19;20021;-67
2023/06/04 10:40:55;;;;;;;1.63;0.85;;;;;;;20.22;26.28;101550.13;7394036;19;20019;-68
2023/06/04 10:43:23;;;;;;;1.38;1.00;;;;;;;20.29;26.31;101546.22;7396190;19;20022;-68
2023/06/04 10:45:52;;;;;;;1.73;0.95;;;;;;;20.35;26.23;101545.94;7395716;19;20457;-68
2023/06/04 10:48:20;;;;;;;5.95;3.47;;;;;;;20.40;25.92;101543.91;7394501;19;20027;-67
2023/06/04 10:50:55;;;;;;;6.78;2.85;;;;;;;20.47;25.91;101544.44;7395697;19;20015;-68
2023/06/04 10:53:24;;;;;;;3.05;1.20;;;;;;;20.51;26.04;101538.03;7395353;19;20107;-68
2023/06/04 10:55:52;;;;;;;3.80;2.67;;;;;;;20.54;25.58;101540.53;7394882;19;20018;-68
2023/06/04 10:58:21;;;;;;;3.30;1.90;;;;;;;20.58;25.89;101549.22;7394253;19;20018;-68
2023/06/04 11:00:50;;;;;;;4.00;2.70;;;;;;;20.63;25.67;101547.19;7394034;19;20023;-69
2023/06/04 11:03:19;;;;;;;2.83;1.45;;;;;;;20.73;25.63;101540.47;7393274;19;20023;-68
2023/06/04 11:05:50;;;;;;;3.42;1.23;;;;;;;20.86;25.47;101547.84;7392881;19;20048;-68
2023/06/04 11:08:30;;;;;;;3.75;1.30;;;;;;;20.98;24.96;101547.19;7393189;19;20041;-69
2023/06/04 11:10:59;;;;;;;2.70;1.48;;;;;;;21.10;25.10;101540.34;7392964;19;20022;-70
2023/06/04 11:13:28;;;;;;;1.58;1.00;;;;;;;21.22;24.82;101539.69;7394494;19;20031;-68
2023/06/04 11:15:56;;;;;;;6.15;3.13;;;;;;;21.34;24.75;101537.28;7394248;19;20022;-69
2023/06/04 11:18:26;;;;;;;24.35;14.63;;;;;;;21.46;24.81;101539.28;7394164;19;20431;-69
2023/06/04 11:21:02;;;;;;;3.28;1.73;;;;;;;21.60;24.19;101527.88;7392722;19;20019;-67
2023/06/04 11:23:35;;;;;;;1.23;1.00;;;;;;;21.72;23.94;101537.00;7392996;19;20384;-68
2023/06/04 11:26:03;;;;;;;3.10;0.80;;;;;;;21.80;24.19;101532.94;7400251;19;20022;-68
2023/06/04 11:28:32;;;;;;;4.65;2.10;;;;;;;21.90;24.03;101533.28;7398862;19;20493;-68
2023/06/04 11:31:02;;;;;;;1.90;0.95;;;;;;;22.01;24.12;101531.81;7399744;19;20078;-68
2023/06/04 11:33:31;;;;;;;1.80;1.20;;;;;;;22.15;23.70;101529.19;7402087;19;20022;-68
2023/06/04 11:35:59;;;;;;;1.77;0.98;;;;;;;22.30;23.42;101530.09;7401643;19;20011;-68
2023/06/04 11:38:28;;;;;;;2.08;1.40;;;;;;;22.41;23.15;101527.69;7398790;19;20014;-69